Time;durP1;ratioP1;P1;durP2;ratioP2;P2;SDS_P1;SDS_P2;PMS_P1;PMS_P2;Temp;Humidity;BMP_temperature;BMP_pressure;BME280_temperature;BME280_humidity;BME280_pressure;Samples;Min_cycle;Max_cycle;Signal;HPM_P1;HPM_P2
2020/12/10 00:01:23;;;;;;;;;;;;;;;-0.60;99.85;98372.75;5028638;28;19924;-94
2020/12/10 00:03:49;;;;;;;;;;;;;;;-0.51;100.00;98360.97;5035599;28;19968;-94
2020/12/10 00:06:17;;;;;;;;;;;;;;;-0.29;98.99;98366.09;5050471;28;19931;-95
2020/12/10 00:08:42;;;;;;;;;;;;;;;-0.49;99.00;98366.88;5035649;28;19959;-95
2020/12/10 00:11:07;;;;;;;;;;;;;;;-0.60;100.00;98367.72;5032493;28;19962;-95
2020/12/10 00:13:33;;;;;;;;;;;;;;;-0.63;100.00;98366.84;5034371;28;20027;-94
2020/12/10 00:15:58;;;;;;;;;;;;;;;-0.18;98.16;98351.75;5035694;28;20331;-95
2020/12/10 00:18:23;;;;;;;;;;;;;;;-0.40;98.59;98355.94;5035783;28;20206;-94
2020/12/10 00:20:49;;;;;;;;;;;;;;;-0.34;98.41;98348.38;5034965;28;19920;-94
2020/12/10 00:23:14;;;;;;;;;;;;;;;-0.15;97.90;98349.22;5035651;28;20019;-95
2020/12/10 00:25:41;;;;;;;;;;;;;;;-0.40;98.87;98350.88;5034654;28;19996;-95
2020/12/10 00:28:06;;;;;;;;;;;;;;;-0.16;97.92;98339.97;5034699;28;19921;-95
2020/12/10 00:30:31;;;;;;;;;;;;;;;-0.28;97.82;98334.88;5035521;28;20400;-95
2020/12/10 00:32:57;;;;;;;;;;;;;;;-0.25;97.39;98339.91;5033350;28;20015;-94
2020/12/10 00:35:22;;;;;;;;;;;;;;;-0.15;97.42;98335.72;5035635;28;19927;-95
2020/12/10 00:37:47;;;;;;;;;;;;;;;-0.31;97.53;98345.00;5037749;28;19971;-95
2020/12/10 00:40:12;;;;;;;;;;;;;;;-0.35;98.34;98345.84;5035347;28;19927;-95
2020/12/10 00:42:38;;;;;;;;;;;;;;;-0.22;97.69;98334.88;5034946;28;20019;-95
2020/12/10 00:45:03;;;;;;;;;;;;;;;-0.29;98.76;98338.25;5036054;28;20003;-95
2020/12/10 00:47:28;;;;;;;;;;;;;;;-0.49;99.28;98336.53;5035735;28;20376;-95
2020/12/10 00:49:54;;;;;;;;;;;;;;;-0.66;100.00;98335.69;5034778;28;20262;-94
2020/12/10 00:52:22;;;;;;;;;;;;;;;-0.43;98.86;98339.09;5034917;28;19920;-94
2020/12/10 00:54:47;;;;;;;;;;;;;;;-0.68;100.00;98335.66;5033359;28;19921;-95
2020/12/10 00:57:13;;;;;;;;;;;;;;;-0.46;99.92;98336.56;5034998;28;20087;-94
2020/12/10 00:59:39;;;;;;;;;;;;;;;-0.48;99.78;98338.25;5035203;28;19917;-96
2020/12/10 01:02:04;;;;;;;;;;;;;;;-0.53;100.00;98334.84;5032508;28;19921;-96
2020/12/10 01:04:30;;;;;;;;;;;;;;;-0.38;99.50;98331.50;5035838;28;20299;-94
2020/12/10 01:06:55;;;;;;;;;;;;;;;-0.32;99.25;98331.50;5034526;28;20356;-94
2020/12/10 01:09:20;;;;;;;;;;;;;;;-0.17;98.80;98327.28;5034416;28;19920;-95
2020/12/10 01:11:45;;;;;;;;;;;;;;;-0.27;98.44;98326.44;5036220;28;19916;-94
2020/12/10 01:14:11;;;;;;;;;;;;;;;-0.48;98.85;98333.19;5034783;28;19944;-94
2020/12/10 01:16:37;;;;;;;;;;;;;;;-0.64;100.00;98334.84;5034504;28;19927;-94
2020/12/10 01:19:02;;;;;;;;;;;;;;;-0.47;99.91;98329.78;5034770;28;19935;-95
2020/12/10 01:21:27;;;;;;;;;;;;;;;-0.47;99.50;98327.25;5038081;28;20221;-95
2020/12/10 01:23:53;;;;;;;;;;;;;;;-0.36;99.06;98311.28;5049678;28;19932;-94
2020/12/10 01:26:18;;;;;;;;;;;;;;;-0.43;98.93;98313.78;5037658;28;19927;-95
2020/12/10 01:28:43;;;;;;;;;;;;;;;-0.44;98.77;98319.66;5050932;28;19998;-94
2020/12/10 01:31:11;;;;;;;;;;;;;;;-0.40;98.50;98309.56;5035326;28;19920;-94
2020/12/10 01:33:36;;;;;;;;;;;;;;;-0.59;99.55;98319.66;5034593;28;19916;-96
2020/12/10 01:36:02;;;;;;;;;;;;;;;-0.39;99.09;98316.31;5033296;28;19966;-95
2020/12/10 01:38:27;;;;;;;;;;;;;;;-0.59;100.00;98324.72;5036002;28;20003;-94
2020/12/10 01:40:52;;;;;;;;;;;;;;;-0.68;100.00;98317.97;5034840;28;19917;-96
2020/12/10 01:43:18;;;;;;;;;;;;;;;-0.61;99.59;98313.75;5034763;28;20019;-95
2020/12/10 01:45:43;;;;;;;;;;;;;;;-0.64;100.00;98306.16;5034228;28;19921;-95
2020/12/10 01:48:09;;;;;;;;;;;;;;;-0.70;100.00;98311.22;5032562;28;20030;-95
2020/12/10 01:50:34;;;;;;;;;;;;;;;-0.74;100.00;98309.53;5034613;28;19929;-95
2020/12/10 01:52:59;;;;;;;;;;;;;;;-0.73;100.00;98303.63;5033991;28;19974;-96
2020/12/10 01:55:24;;;;;;;;;;;;;;;-0.65;100.00;98300.25;5036701;28;20684;-95
2020/12/10 01:57:50;;;;;;;;;;;;;;;-0.69;100.00;98297.72;5035221;28;20732;-95
2020/12/10 02:00:23;;;;;;;;;;;;;;;-0.75;99.58;98295.19;5033315;28;19920;-95
2020/12/10 02:02:55;;;;;;;;;;;;;;;-0.68;100.00;98289.31;5032097;28;20059;-94
2020/12/10 02:05:21;;;;;;;;;;;;;;;-0.48;99.08;98277.53;5032155;28;20286;-93
2020/12/10 02:07:46;;;;;;;;;;;;;;;-0.60;99.36;98277.50;5037412;28;19932;-95
2020/12/10 02:10:11;;;;;;;;;;;;;;;-0.64;98.88;98288.47;5035525;28;19967;-95
2020/12/10 02:12:39;;;;;;;;;;;;;;;-0.79;99.58;98296.88;5036890;28;19990;-94
2020/12/10 02:15:04;;;;;;;;;;;;;;;-0.70;99.13;98296.06;5041148;28;19924;-95
2020/12/10 02:17:29;;;;;;;;;;;;;;;-0.58;99.31;98282.56;5038220;28;19917;-95
2020/12/10 02:19:55;;;;;;;;;;;;;;;-0.72;99.38;98287.63;5045767;28;19967;-94
2020/12/10 02:22:20;;;;;;;;;;;;;;;-0.91;99.13;98280.00;5037186;28;19971;-94
2020/12/10 02:24:45;;;;;;;;;;;;;;;-0.87;100.00;98285.88;5039719;28;20391;-94
2020/12/10 02:27:10;;;;;;;;;;;;;;;-0.77;99.26;98284.25;5054010;28;19924;-96
2020/12/10 02:29:36;;;;;;;;;;;;;;;-0.46;98.23;98273.31;5039812;28;19952;-95
2020/12/10 02:32:02;;;;;;;;;;;;;;;-0.40;97.12;98264.88;5054353;28;19985;-94
2020/12/10 02:34:27;;;;;;;;;;;;;;;-0.68;98.42;98264.03;5039585;28;20556;-94
2020/12/10 02:36:52;;;;;;;;;;;;;;;-0.39;97.59;98261.50;5038135;28;20418;-96
2020/12/10 02:39:17;;;;;;;;;;;;;;;-0.34;95.97;98266.56;5035797;28;19921;-94
2020/12/10 02:41:43;;;;;;;;;;;;;;;-1.07;98.42;98265.66;5039787;28;20339;-94
2020/12/10 02:44:08;;;;;;;;;;;;;;;-0.91;99.59;98274.94;5038393;28;19921;-94
2020/12/10 02:46:33;;;;;;;;;;;;;;;-0.85;97.83;98266.53;5052198;28;19920;-94
2020/12/10 02:48:59;;;;;;;;;;;;;;;-0.89;99.97;98255.56;5035984;28;19927;-95
2020/12/10 02:51:24;;;;;;;;;;;;;;;-0.40;97.54;98251.41;5037952;28;19975;-94
2020/12/10 02:53:49;;;;;;;;;;;;;;;-0.49;96.09;98255.59;5040782;28;19934;-95
2020/12/10 02:56:15;;;;;;;;;;;;;;;-0.27;95.60;98248.03;5036551;28;20007;-95
2020/12/10 02:58:40;;;;;;;;;;;;;;;-0.10;96.17;98238.69;5038383;28;19921;-94
2020/12/10 03:01:06;;;;;;;;;;;;;;;-0.77;98.77;98243.81;5036817;28;19963;-94
2020/12/10 03:03:31;;;;;;;;;;;;;;;-0.33;96.80;98235.38;5036960;28;19924;-95
2020/12/10 03:05:57;;;;;;;;;;;;;;;-0.44;96.42;98243.78;5045851;28;19920;-95
2020/12/10 03:08:22;;;;;;;;;;;;;;;-0.40;96.18;98233.69;5037184;28;20015;-94
2020/12/10 03:10:48;;;;;;;;;;;;;;;-0.53;98.04;98236.19;5036721;28;19958;-95
2020/12/10 03:13:14;;;;;;;;;;;;;;;-0.48;96.34;98237.06;5038296;28;20704;-94
2020/12/10 03:15:39;;;;;;;;;;;;;;;-0.60;96.94;98226.94;5036957;28;19938;-95
2020/12/10 03:18:04;;;;;;;;;;;;;;;-0.48;98.21;98221.91;5036215;28;19927;-94
2020/12/10 03:20:30;;;;;;;;;;;;;;;-0.81;97.98;98226.94;5038537;28;19924;-95
2020/12/10 03:22:55;;;;;;;;;;;;;;;-0.71;98.98;98218.50;5033687;28;19928;-95
2020/12/10 03:25:20;;;;;;;;;;;;;;;-0.69;97.75;98216.81;5037003;28;20003;-95
2020/12/10 03:27:46;;;;;;;;;;;;;;;-0.31;97.26;98215.97;5035565;28;20460;-95
2020/12/10 03:30:11;;;;;;;;;;;;;;;-0.41;96.13;98212.63;5038033;28;19927;-95
2020/12/10 03:32:37;;;;;;;;;;;;;;;-0.37;96.08;98203.31;5050632;28;19921;-94
2020/12/10 03:35:03;;;;;;;;;;;;;;;-0.45;97.14;98196.59;5036696;28;20576;-94
2020/12/10 03:37:28;;;;;;;;;;;;;;;-0.49;97.66;98199.97;5037293;28;19970;-94
2020/12/10 03:39:54;;;;;;;;;;;;;;;-0.54;97.36;98194.06;5033601;28;19928;-94
2020/12/10 03:42:19;;;;;;;;;;;;;;;-0.26;96.69;98189.81;5035265;28;19987;-95
2020/12/10 03:44:44;;;;;;;;;;;;;;;-0.08;95.42;98191.47;5034874;28;20277;-94
2020/12/10 03:47:10;;;;;;;;;;;;;;;-0.27;95.22;98194.88;5036582;28;19917;-95
2020/12/10 03:49:35;;;;;;;;;;;;;;;-0.09;95.32;98194.84;5034981;28;20373;-94
2020/12/10 03:52:00;;;;;;;;;;;;;;;-0.15;95.99;98194.84;5053005;28;19932;-95
2020/12/10 03:54:26;;;;;;;;;;;;;;;-0.19;94.50;98193.16;5037673;28;19925;-95
2020/12/10 03:56:51;;;;;;;;;;;;;;;0.08;95.14;98197.31;5037706;28;19947;-95
2020/12/10 03:59:16;;;;;;;;;;;;;;;0.12;94.66;98190.56;5034384;28;20031;-96
2020/12/10 04:01:41;;;;;;;;;;;;;;;0.01;94.43;98194.81;5037649;28;20365;-94
2020/12/10 04:04:07;;;;;;;;;;;;;;;-0.47;96.66;98202.50;5036875;28;19971;-95
2020/12/10 04:06:32;;;;;;;;;;;;;;;-0.54;97.69;98201.66;5036425;28;19920;-94
2020/12/10 04:08:58;;;;;;;;;;;;;;;-0.46;96.25;98189.84;5032233;28;19917;-95
2020/12/10 04:11:23;;;;;;;;;;;;;;;-0.49;97.05;98189.84;5035695;28;19920;-94
2020/12/10 04:13:49;;;;;;;;;;;;;;;-0.53;98.04;98193.22;5033943;28;19921;-95
2020/12/10 04:16:14;;;;;;;;;;;;;;;-0.60;96.99;98195.75;5033124;28;19924;-94
2020/12/10 04:18:40;;;;;;;;;;;;;;;-0.42;96.84;98189.00;5050121;28;19921;-94
2020/12/10 04:21:06;;;;;;;;;;;;;;;-0.60;96.54;98196.59;5036143;28;19971;-96
2020/12/10 04:23:31;;;;;;;;;;;;;;;-0.53;97.07;98198.28;5034353;28;20008;-95
2020/12/10 04:25:56;;;;;;;;;;;;;;;-0.68;98.19;98198.28;5035335;28;20590;-94
2020/12/10 04:28:22;;;;;;;;;;;;;;;-0.75;99.01;98204.16;5033218;28;19921;-93
2020/12/10 04:30:47;;;;;;;;;;;;;;;-0.59;97.25;98200.81;5033354;28;20347;-95
2020/12/10 04:33:13;;;;;;;;;;;;;;;-0.96;98.70;98199.94;5035842;28;19976;-95
2020/12/10 04:35:38;;;;;;;;;;;;;;;-1.04;98.78;98199.13;5037666;28;19920;-95
2020/12/10 04:38:04;;;;;;;;;;;;;;;-0.65;97.76;98203.34;5034921;28;19928;-95
2020/12/10 04:40:29;;;;;;;;;;;;;;;-0.97;99.60;98198.28;5036143;28;19981;-96
2020/12/10 04:42:55;;;;;;;;;;;;;;;-0.76;97.73;98199.97;5037556;28;19931;-96
2020/12/10 04:45:21;;;;;;;;;;;;;;;-0.55;97.28;98199.94;5039214;28;20788;-96
2020/12/10 04:47:46;;;;;;;;;;;;;;;-1.01;98.78;98202.47;5033977;28;19917;-96
2020/12/10 04:50:18;;;;;;;;;;;;;;;-0.87;99.67;98203.34;5033849;28;19932;-95
2020/12/10 04:52:43;;;;;;;;;;;;;;;-0.71;98.25;98198.28;5038041;28;19921;-95
2020/12/10 04:55:08;;;;;;;;;;;;;;;-0.77;97.20;98206.72;5037616;28;19927;-96
2020/12/10 04:57:34;;;;;;;;;;;;;;;-0.77;96.97;98198.28;5032550;28;19924;-94
2020/12/10 04:59:59;;;;;;;;;;;;;;;-0.80;97.38;98200.81;5036070;28;20027;-94
2020/12/10 05:02:26;;;;;;;;;;;;;;;-0.76;96.88;98199.97;5033219;28;22105;-96
2020/12/10 05:04:54;;;;;;;;;;;;;;;-0.80;96.93;98190.69;5038144;28;19916;-91
2020/12/10 05:07:20;;;;;;;;;;;;;;;-0.92;97.51;98187.31;5034374;28;19955;-89
2020/12/10 05:10:03;;;;;;;;;;;;;;;-0.87;97.33;98202.47;5046496;28;20176;-90
2020/12/10 05:12:28;;;;;;;;;;;;;;;-0.71;96.63;98193.22;5027615;28;19920;-89
2020/12/10 05:14:54;;;;;;;;;;;;;;;-0.54;95.57;98191.53;5026915;28;19936;-92
2020/12/10 05:17:20;;;;;;;;;;;;;;;-0.78;96.10;98189.84;5029770;28;19917;-91
2020/12/10 05:19:52;;;;;;;;;;;;;;;-0.77;96.55;98188.19;5034451;28;19925;-93
2020/12/10 05:22:17;;;;;;;;;;;;;;;-0.85;96.43;98186.47;5031185;28;20077;-89
2020/12/10 05:24:42;;;;;;;;;;;;;;;-0.66;96.10;98186.50;5031522;28;20425;-92
2020/12/10 05:27:14;;;;;;;;;;;;;;;-0.96;97.44;98194.88;5017829;28;19932;-91
2020/12/10 05:29:40;;;;;;;;;;;;;;;-1.08;97.64;98193.19;5028968;28;21024;-90
2020/12/10 05:32:05;;;;;;;;;;;;;;;-0.86;96.86;98189.03;5028019;28;19928;-88
2020/12/10 05:34:30;;;;;;;;;;;;;;;-0.95;97.19;98197.44;5044362;28;19928;-90
2020/12/10 05:36:56;;;;;;;;;;;;;;;-0.72;96.72;98191.53;5031504;28;19920;-92
2020/12/10 05:39:21;;;;;;;;;;;;;;;-0.89;96.64;98199.97;5031356;28;19978;-91
2020/12/10 05:41:46;;;;;;;;;;;;;;;-0.87;96.86;98200.81;5028371;28;19951;-89
2020/12/10 05:44:14;;;;;;;;;;;;;;;-0.68;96.55;98193.25;5030122;28;19926;-90
2020/12/10 05:46:40;;;;;;;;;;;;;;;-0.52;95.71;98194.91;5047582;28;19920;-89
2020/12/10 05:49:05;;;;;;;;;;;;;;;-0.66;95.47;98199.16;5027147;28;20749;-88
2020/12/10 05:51:32;;;;;;;;;;;;;;;-1.07;98.05;98192.38;5039377;28;20443;-90
2020/12/10 05:53:57;;;;;;;;;;;;;;;-1.07;97.68;98195.75;5029274;28;19920;-90
2020/12/10 05:56:22;;;;;;;;;;;;;;;-1.28;98.34;98199.06;5030606;28;19925;-92
2020/12/10 05:58:52;;;;;;;;;;;;;;;-1.26;97.81;98189.78;5034662;28;19936;-92
2020/12/10 06:01:27;;;;;;;;;;;;;;;-1.28;98.63;98196.53;5047830;28;20015;-90
2020/12/10 06:03:53;;;;;;;;;;;;;;;-0.89;96.48;98189.88;5042928;28;19921;-89
2020/12/10 06:06:22;;;;;;;;;;;;;;;-1.27;98.18;98183.06;5047991;28;19921;-94
2020/12/10 06:08:50;;;;;;;;;;;;;;;-1.24;98.50;98191.50;5036041;28;19920;-94
2020/12/10 06:11:19;;;;;;;;;;;;;;;-1.25;98.16;98195.72;5053510;28;20023;-93
2020/12/10 06:13:44;;;;;;;;;;;;;;;-0.91;96.06;98186.50;5039102;28;19931;-94
2020/12/10 06:16:16;;;;;;;;;;;;;;;-0.96;95.91;98187.31;5035656;28;19929;-95
2020/12/10 06:19:00;;;;;;;;;;;;;;;-0.99;95.90;98185.63;5036697;28;19925;-95
2020/12/10 06:21:36;;;;;;;;;;;;;;;-1.21;96.94;98191.47;5036342;28;19927;-92
2020/12/10 06:24:21;;;;;;;;;;;;;;;-1.29;97.65;98191.47;5035727;28;20183;-93
2020/12/10 06:26:47;;;;;;;;;;;;;;;-1.13;97.67;98179.72;5066936;28;19927;-91
2020/12/10 06:29:21;;;;;;;;;;;;;;;-1.05;96.55;98185.59;5035089;28;19925;-95
2020/12/10 06:32:07;;;;;;;;;;;;;;;-1.11;96.53;98194.03;5054379;28;19920;-93
2020/12/10 06:34:57;;;;;;;;;;;;;;;-1.24;96.49;98194.84;5053791;28;19921;-94
2020/12/10 06:37:26;;;;;;;;;;;;;;;-1.35;97.78;98183.88;5037418;28;19916;-93
2020/12/10 06:39:53;;;;;;;;;;;;;;;-1.35;98.12;98188.94;5035029;28;19920;-93
2020/12/10 06:42:18;;;;;;;;;;;;;;;-1.51;99.50;98188.03;5039634;28;20059;-93
2020/12/10 06:44:43;;;;;;;;;;;;;;;-1.40;98.25;98185.56;5034978;28;20011;-94
2020/12/10 06:47:09;;;;;;;;;;;;;;;-1.35;97.46;98188.94;5036078;28;20012;-93
2020/12/10 06:49:35;;;;;;;;;;;;;;;-1.21;96.97;98191.47;5038710;28;20278;-93
2020/12/10 06:52:06;;;;;;;;;;;;;;;-1.14;96.64;98183.06;5035973;28;19920;-95
2020/12/10 06:54:32;;;;;;;;;;;;;;;-1.13;95.21;98183.09;5052164;28;19928;-93
2020/12/10 06:57:07;;;;;;;;;;;;;;;-1.19;95.47;98190.66;5036454;28;20289;-95
2020/12/10 06:59:36;;;;;;;;;;;;;;;-1.34;95.32;98199.03;5059898;28;19917;-96
2020/12/10 07:02:09;;;;;;;;;;;;;;;-1.41;97.64;98194.00;5034703;28;20078;-94
2020/12/10 07:04:38;;;;;;;;;;;;;;;-1.77;99.33;98198.91;5049295;28;20313;-96
2020/12/10 07:07:13;;;;;;;;;;;;;;;-1.62;99.22;98199.78;5037086;28;19923;-95
2020/12/10 07:09:48;;;;;;;;;;;;;;;-1.49;97.45;98204.03;5037064;28;20846;-95
2020/12/10 07:12:32;;;;;;;;;;;;;;;-1.47;97.14;98199.84;5051971;28;19927;-94
2020/12/10 07:15:27;;;;;;;;;;;;;;;-1.32;96.32;98199.91;5037376;28;19921;-95
2020/12/10 07:17:52;;;;;;;;;;;;;;;-1.50;98.21;98202.38;5045397;28;20039;-94
2020/12/10 07:20:18;;;;;;;;;;;;;;;-1.50;97.67;98210.78;5034517;28;20007;-95
2020/12/10 07:22:43;;;;;;;;;;;;;;;-1.37;96.51;98206.63;5029665;28;20302;-95
2020/12/10 07:25:09;;;;;;;;;;;;;;;-1.27;95.31;98207.47;5028438;28;20187;-95
2020/12/10 07:27:34;;;;;;;;;;;;;;;-1.33;95.18;98203.25;5029342;28;19925;-95
2020/12/10 07:29:59;;;;;;;;;;;;;;;-1.49;96.30;98206.56;5030215;28;19974;-95
2020/12/10 07:32:25;;;;;;;;;;;;;;;-1.54;96.70;98210.78;5031119;28;19917;-94
2020/12/10 07:34:50;;;;;;;;;;;;;;;-1.69;97.45;98209.88;5032496;28;20217;-95
2020/12/10 07:37:17;;;;;;;;;;;;;;;-1.84;98.37;98212.34;5029921;28;19945;-95
2020/12/10 07:39:42;;;;;;;;;;;;;;;-1.79;97.25;98208.13;5030578;28;19924;-96
2020/12/10 07:42:07;;;;;;;;;;;;;;;-1.73;96.38;98208.19;5033077;28;19924;-96
2020/12/10 07:44:34;;;;;;;;;;;;;;;-1.43;95.57;98203.25;5031602;28;19943;-94
2020/12/10 07:47:00;;;;;;;;;;;;;;;-1.55;96.77;98206.53;5029682;28;20017;-95
2020/12/10 07:49:27;;;;;;;;;;;;;;;-1.47;96.86;98204.91;5031166;28;19932;-95
2020/12/10 07:52:05;;;;;;;;;;;;;;;-1.41;96.56;98202.41;5032512;28;19921;-95
2020/12/10 07:54:41;;;;;;;;;;;;;;;-1.48;97.12;98209.09;5029366;28;19928;-96
2020/12/10 07:57:07;;;;;;;;;;;;;;;-1.60;95.98;98203.16;5028419;28;20440;-96
2020/12/10 07:59:32;;;;;;;;;;;;;;;-1.28;96.44;98199.06;5031134;28;19931;-95
2020/12/10 08:01:57;;;;;;;;;;;;;;;-0.94;95.32;98196.56;5031629;28;19921;-95
2020/12/10 08:04:23;;;;;;;;;;;;;;;-1.03;93.85;98198.25;5033991;28;19921;-95
2020/12/10 08:06:51;;;;;;;;;;;;;;;-1.00;95.86;98194.06;5028874;28;19952;-95
2020/12/10 08:09:18;;;;;;;;;;;;;;;-1.09;97.30;98196.59;5031242;28;19928;-96
2020/12/10 08:11:49;;;;;;;;;;;;;;;-0.86;95.97;98199.97;5039966;28;20406;-95
2020/12/10 08:14:22;;;;;;;;;;;;;;;-0.75;95.15;98192.41;5049753;28;20213;-96
2020/12/10 08:16:49;;;;;;;;;;;;;;;-0.80;95.20;98194.06;5041673;28;20050;-94
2020/12/10 08:19:15;;;;;;;;;;;;;;;-0.82;95.50;98199.94;5044733;28;19921;-95
2020/12/10 08:21:49;;;;;;;;;;;;;;;-1.18;96.75;98201.63;5054958;28;19971;-96
2020/12/10 08:24:32;;;;;;;;;;;;;;;-1.21;98.80;98204.13;5037470;28;19948;-96
2020/12/10 08:26:58;;;;;;;;;;;;;;;-1.09;95.78;98206.69;5035550;28;20478;-95
2020/12/10 08:29:25;;;;;;;;;;;;;;;-0.96;97.04;98207.53;5036938;28;19917;-95
2020/12/10 08:31:54;;;;;;;;;;;;;;;-0.82;95.91;98199.94;5045137;28;19932;-96
2020/12/10 08:34:21;;;;;;;;;;;;;;;-0.85;97.33;98195.75;5049620;28;20379;-96
2020/12/10 08:36:47;;;;;;;;;;;;;;;-0.91;96.89;98196.59;5039850;28;19916;-96
2020/12/10 08:39:15;;;;;;;;;;;;;;;-1.11;99.69;98198.25;5038254;28;19935;-96
2020/12/10 08:41:40;;;;;;;;;;;;;;;-0.87;100.00;98192.38;5039776;28;20637;-96
2020/12/10 08:44:06;;;;;;;;;;;;;;;-1.09;98.30;98186.47;5034482;28;19917;-96
2020/12/10 08:46:32;;;;;;;;;;;;;;;-0.99;97.57;98185.63;5034421;28;19963;-96
2020/12/10 08:49:14;;;;;;;;;;;;;;;-0.89;98.03;98181.41;5033456;28;20223;-96
2020/12/10 08:51:40;;;;;;;;;;;;;;;-0.79;97.06;98184.81;5036701;28;20015;-96
2020/12/10 08:54:05;;;;;;;;;;;;;;;-0.60;97.53;98175.53;5034777;28;19931;-96
2020/12/10 08:56:36;;;;;;;;;;;;;;;-0.75;98.26;98178.88;5033318;28;19921;-96
2020/12/10 08:59:01;;;;;;;;;;;;;;;-0.76;99.02;98189.84;5033093;28;19924;-96
2020/12/10 09:01:27;;;;;;;;;;;;;;;-0.54;98.34;98186.47;5033284;28;20380;-94
2020/12/10 09:03:52;;;;;;;;;;;;;;;-0.20;98.72;98178.84;5035137;28;19920;-96
2020/12/10 09:06:17;;;;;;;;;;;;;;;-0.15;97.00;98182.19;5036021;28;20035;-96
2020/12/10 09:08:43;;;;;;;;;;;;;;;-0.57;98.39;98183.97;5036313;28;19951;-95
2020/12/10 09:11:08;;;;;;;;;;;;;;;-0.69;99.39;98183.94;5035878;28;19921;-96
2020/12/10 09:13:34;;;;;;;;;;;;;;;-0.91;99.99;98181.44;5034487;28;20646;-96
2020/12/10 09:16:02;;;;;;;;;;;;;;;-0.71;99.56;98183.09;5060211;28;19920;-94
2020/12/10 09:18:28;;;;;;;;;;;;;;;-0.77;99.37;98178.91;5039344;28;19921;-96
2020/12/10 09:20:55;;;;;;;;;;;;;;;-0.73;99.03;98184.78;5050581;22;19929;-96
2020/12/10 09:23:20;;;;;;;;;;;;;;;-0.44;99.44;98183.09;5052765;28;20410;-96
2020/12/10 09:25:45;;;;;;;;;;;;;;;-0.36;100.00;98185.63;5055181;28;19942;-96
2020/12/10 09:28:11;;;;;;;;;;;;;;;-0.08;99.57;98191.47;5059484;28;19916;-93
2020/12/10 09:30:38;;;;;;;;;;;;;;;-0.39;98.80;98180.53;5056234;28;19927;-96
2020/12/10 09:33:03;;;;;;;;;;;;;;;-0.78;100.00;98182.25;5058862;28;20364;-96
2020/12/10 09:35:29;;;;;;;;;;;;;;;-0.80;100.00;98185.63;5055297;28;19927;-96
2020/12/10 09:37:54;;;;;;;;;;;;;;;-0.64;100.00;98180.59;5053791;28;19916;-96
2020/12/10 09:40:20;;;;;;;;;;;;;;;-0.63;100.00;98176.38;5047242;28;19970;-95
2020/12/10 09:42:46;;;;;;;;;;;;;;;-0.39;100.00;98179.72;5045491;28;20444;-95
2020/12/10 09:45:11;;;;;;;;;;;;;;;-0.35;99.14;98176.34;5047620;28;20006;-96
2020/12/10 09:47:38;;;;;;;;;;;;;;;0.17;97.00;98186.34;5047723;28;19976;-95
2020/12/10 09:50:07;;;;;;;;;;;;;;;0.23;97.56;98176.19;5073501;28;19920;-96
2020/12/10 09:52:35;;;;;;;;;;;;;;;0.32;97.94;98178.69;5072571;28;20007;-96
2020/12/10 09:58:09;;;;;;;;;;;;;;;0.33;98.73;98180.34;5029710;28;19983;-78
2020/12/10 10:00:35;;;;;;;;;;;;;;;0.04;97.48;98179.63;5025131;28;19953;-78
2020/12/10 10:03:05;;;;;;;;;;;;;;;-0.04;99.45;98187.25;5024721;28;19922;-79
2020/12/10 10:05:31;;;;;;;;;;;;;;;-0.01;100.00;98185.53;5009828;28;19972;-78
2020/12/10 10:07:56;;;;;;;;;;;;;;;0.19;99.32;98189.69;5009646;28;19914;-78
2020/12/10 10:10:22;;;;;;;;;;;;;;;0.50;98.70;98185.34;5025225;28;20279;-78
2020/12/10 10:12:47;;;;;;;;;;;;;;;0.85;98.68;98180.94;5024703;28;20298;-78
2020/12/10 10:15:13;;;;;;;;;;;;;;;0.91;98.18;98180.88;5008510;28;20394;-78
2020/12/10 10:17:38;;;;;;;;;;;;;;;0.58;96.89;98183.59;5009498;28;19981;-78
2020/12/10 10:20:03;;;;;;;;;;;;;;;0.57;97.92;98186.13;5008856;28;19928;-78
2020/12/10 10:22:31;;;;;;;;;;;;;;;0.64;97.89;98182.75;5026217;28;19953;-78
2020/12/10 10:24:57;;;;;;;;;;;;;;;0.67;98.10;98176.81;4995909;28;19964;-79
2020/12/10 10:27:22;;;;;;;;;;;;;;;0.83;97.93;98179.25;5026644;28;19917;-78
2020/12/10 10:29:47;;;;;;;;;;;;;;;1.01;97.86;98177.44;5011274;28;19928;-79
2020/12/10 10:32:12;;;;;;;;;;;;;;;0.68;96.85;98179.31;5014665;28;19918;-78
2020/12/10 10:34:38;;;;;;;;;;;;;;;0.63;98.24;98175.97;5029897;28;19918;-79
2020/12/10 10:37:03;;;;;;;;;;;;;;;0.83;97.24;98176.72;5013922;28;19917;-79
2020/12/10 10:39:29;;;;;;;;;;;;;;;0.77;98.14;98176.75;5013543;28;20334;-78
2020/12/10 10:41:54;;;;;;;;;;;;;;;0.73;97.86;98175.09;5013585;28;19964;-78
2020/12/10 10:44:19;;;;;;;;;;;;;;;0.54;96.92;98171.81;5014958;28;19917;-79
2020/12/10 10:46:45;;;;;;;;;;;;;;;0.61;98.21;98170.09;5013512;28;20022;-80
2020/12/10 10:49:12;;;;;;;;;;;;;;;0.70;97.39;98166.66;5018020;28;19921;-79
2020/12/10 10:51:38;;;;;;;;;;;;;;;0.84;98.02;98159.81;5017847;28;19925;-80
2020/12/10 10:54:03;;;;;;;;;;;;;;;0.77;96.93;98155.63;5019213;28;20255;-80
2020/12/10 10:56:28;;;;;;;;;;;;;;;0.92;97.63;98152.16;5031514;28;19949;-80
2020/12/10 10:58:54;;;;;;;;;;;;;;;0.89;97.24;98147.09;5032597;28;19918;-79
2020/12/10 11:01:28;;;;;;;;;;;;;;;0.87;96.82;98148.78;5016169;28;19944;-79
2020/12/10 11:03:54;;;;;;;;;;;;;;;0.65;98.72;98148.94;5034108;28;19924;-79
2020/12/10 11:06:19;;;;;;;;;;;;;;;0.78;98.21;98149.72;5034960;28;19918;-79
2020/12/10 11:08:45;;;;;;;;;;;;;;;0.89;97.95;98135.28;5017607;28;20420;-79
2020/12/10 11:11:10;;;;;;;;;;;;;;;0.98;97.29;98134.34;5014959;28;20232;-78
2020/12/10 11:13:35;;;;;;;;;;;;;;;1.29;96.07;98129.88;5014479;28;19917;-79
2020/12/10 11:16:01;;;;;;;;;;;;;;;1.43;95.96;98133.13;5000506;28;19913;-80
2020/12/10 11:18:26;;;;;;;;;;;;;;;1.18;96.38;98129.97;5017233;28;20024;-80
2020/12/10 11:20:51;;;;;;;;;;;;;;;0.95;97.84;98136.91;4983227;28;19924;-79
2020/12/10 11:23:19;;;;;;;;;;;;;;;1.14;97.59;98135.94;5031354;28;19917;-79
2020/12/10 11:25:44;;;;;;;;;;;;;;;1.24;96.83;98132.47;5028941;28;20279;-80
2020/12/10 11:28:10;;;;;;;;;;;;;;;1.52;96.28;98119.50;5016002;28;19933;-79
2020/12/10 11:30:35;;;;;;;;;;;;;;;0.94;97.82;98122.56;5014231;28;19977;-80
2020/12/10 11:33:00;;;;;;;;;;;;;;;0.89;98.22;98126.81;5011192;28;19952;-79
2020/12/10 11:35:26;;;;;;;;;;;;;;;0.44;99.91;98132.19;5029665;28;19947;-78
2020/12/10 11:37:55;;;;;;;;;;;;;;;0.47;100.00;98123.72;5013172;28;19921;-79
2020/12/10 11:40:21;;;;;;;;;;;;;;;0.65;99.74;98126.16;4996597;28;19968;-79
2020/12/10 11:42:48;;;;;;;;;;;;;;;0.82;100.00;98116.75;5027462;28;20417;-79
2020/12/10 11:45:13;;;;;;;;;;;;;;;0.87;99.70;98123.44;5011486;28;19929;-79
2020/12/10 11:47:38;;;;;;;;;;;;;;;1.26;98.25;98119.78;5010332;28;19917;-78
2020/12/10 11:50:04;;;;;;;;;;;;;;;1.17;98.52;98117.31;5027979;28;20276;-79
2020/12/10 11:52:29;;;;;;;;;;;;;;;0.81;99.28;98116.75;5028143;28;19914;-79
2020/12/10 11:54:54;;;;;;;;;;;;;;;0.71;99.92;98121.03;5011930;28;20519;-79
2020/12/10 11:57:19;;;;;;;;;;;;;;;0.77;100.00;98123.50;5030197;28;19968;-80
2020/12/10 11:59:45;;;;;;;;;;;;;;;0.81;99.74;98125.19;5030423;28;20416;-79
2020/12/10 12:02:11;;;;;;;;;;;;;;;0.90;99.16;98113.31;5014671;28;19918;-79
2020/12/10 12:04:36;;;;;;;;;;;;;;;0.86;100.00;98111.66;4999339;28;19921;-80
2020/12/10 12:07:02;;;;;;;;;;;;;;;0.98;99.84;98111.53;5014542;28;19925;-79
2020/12/10 12:09:27;;;;;;;;;;;;;;;0.79;100.00;98111.69;5015611;28;19917;-79
2020/12/10 12:11:53;;;;;;;;;;;;;;;0.70;100.00;98111.75;4982006;28;19922;-79
2020/12/10 12:14:18;;;;;;;;;;;;;;;0.92;100.00;98107.38;5031121;28;19917;-79
2020/12/10 12:16:47;;;;;;;;;;;;;;;1.67;98.47;98108.38;5031300;28;19956;-79
2020/12/10 12:19:12;;;;;;;;;;;;;;;1.95;96.45;98105.53;5016077;28;19917;-79
2020/12/10 12:21:38;;;;;;;;;;;;;;;1.62;96.85;98102.50;5014963;28;19935;-79
2020/12/10 12:24:03;;;;;;;;;;;;;;;1.63;97.84;98107.56;5015897;28;19989;-79
2020/12/10 12:26:30;;;;;;;;;;;;;;;1.86;97.06;98103.94;5014529;28;19913;-79
2020/12/10 12:28:55;;;;;;;;;;;;;;;1.82;96.49;98107.34;5014828;28;19913;-78
2020/12/10 12:31:26;;;;;;;;;;;;;;;1.89;96.99;98103.88;5014079;28;19924;-80
2020/12/10 12:33:51;;;;;;;;;;;;;;;1.86;97.08;98106.47;5031788;28;19996;-80
2020/12/10 12:36:16;;;;;;;;;;;;;;;2.11;95.96;98109.56;5014475;28;19949;-79
2020/12/10 12:38:42;;;;;;;;;;;;;;;1.50;97.58;98108.53;4986060;28;20408;-79
2020/12/10 12:41:07;;;;;;;;;;;;;;;0.53;100.00;98113.56;5030970;28;19936;-79
2020/12/10 12:43:32;;;;;;;;;;;;;;;0.32;100.00;98110.31;5030142;28;20326;-79
2020/12/10 12:45:58;;;;;;;;;;;;;;;0.48;100.00;98113.59;5012579;28;19929;-80
2020/12/10 12:48:23;;;;;;;;;;;;;;;0.46;100.00;98106.81;5012812;28;19952;-79